This is the latest recevied weather packets stored in our database for station/object KG7BDA. If no packets are shown the sender has not sent any weather packets the latest 10 day(s).
| Time | Temp. | Humidity | Pressure | Rain* | Wind** | Luminosity | Snow |
|---|---|---|---|---|---|---|---|
| 1778061442 | 7.22° C | 56% | 1017.4 hPa | 0 mm | - | - | - |
| 1778061082 | 7.22° C | 54% | 1017.5 hPa | 0 mm | - | - | - |
| 1778060722 | 7.78° C | 54% | 1017.4 hPa | 0 mm | - | - | - |
| 1778060362 | 7.78° C | 52% | 1017.4 hPa | 0 mm | - | - | - |
| 1778060002 | 8.33° C | 51% | 1017.4 hPa | 0 mm | - | - | - |
| 1778059642 | 8.33° C | 51% | 1017.4 hPa | 0 mm | - | - | - |
| 1778059282 | 8.33° C | 51% | 1017.2 hPa | 0 mm | - | - | - |
| 1778058921 | 8.89° C | 50% | 1017.1 hPa | 0 mm | - | - | - |
| 1778058562 | 8.89° C | 49% | 1017 hPa | 0 mm | - | - | - |
| 1778058202 | 8.89° C | 49% | 1016.9 hPa | 0 mm | - | - | - |
| 1778057842 | 9.44° C | 48% | 1016.8 hPa | 0 mm | - | - | - |
| 1778057482 | 9.44° C | 47% | 1016.7 hPa | 0 mm | - | - | - |
| 1778057122 | 9.44° C | 46% | 1016.6 hPa | 0 mm | - | - | - |
| 1778056762 | 10° C | 46% | 1016.3 hPa | 0 mm | - | - | - |
| 1778056402 | 10.56° C | 45% | 1016.2 hPa | 0 mm | - | - | - |
| 1778056041 | 10.56° C | 45% | 1016.1 hPa | 0 mm | - | - | - |
| 1778055682 | 10.56° C | 45% | 1015.9 hPa | 0 mm | - | - | - |
| 1778055322 | 10.56° C | 47% | 1015.7 hPa | 0 mm | - | - | - |
| 1778054962 | 10.56° C | 51% | 1015.3 hPa | 0 mm | - | - | - |
| 1778054602 | 11.67° C | 49% | 1015.2 hPa | 0 mm | - | - | - |
| 1778054242 | 12.22° C | 46% | 1014.4 hPa | 0 mm | - | - | - |
| 1778053881 | 15° C | 38% | 1014.2 hPa | 0 mm | - | - | - |
| 1778053521 | 15° C | 39% | 1014 hPa | 0 mm | - | - | - |
| 1778053161 | 14.44° C | 41% | 1013.8 hPa | 0 mm | - | - | - |
| 1778052801 | 13.89° C | 43% | 1013.9 hPa | 0 mm | - | - | - |
* Rain latest hour (hover to see other rain measurements)
** Current wind speed in m/s (hover to see current wind gust speed)